Meath Environmental Platform

Observations for Trim Market St

Time AQI Temp °C Hum % Pres Pa CO μg/m³ H₂S μg/m³ NO μg/m³ NO₂ μg/m³ O₃ μg/m³ SO₂ μg/m³ PM1 μg/m³ PM2.5 μg/m³ PM10 μg/m³
Tuesday 7 July 2026
23:09 1 21.5 68 55,613 0 0 0 6.58 15.29 0 2.14 3.66 5.61
23:08 1 21.6 68 55,678 0 0 0 7.46 14.35 0 2.14 4.15 6.25
23:04 1 21.7 67 55,851 0 0 0 7.37 15.19 0 2.14 3.68 5.6
23:03 1 21.7 67 55,913 0 0 0 7.28 13.95 0 2.14 3.19 5.6
23:02 1 21.7 67 55,969 0 0 0 8.78 16.23 0 2.85 4.66 8.17
23:01 1 21.7 67 56,030 0 0 0 7.39 14.47 0 1.43 2.71 4.31
22:59 1 21.8 67 56,112 0 0 0 7.19 12.97 0 1.43 3.7 5.59
22:58 1 21.8 67 56,164 0 0.39 0 8.1 19.5 0 1.43 4.19 6.88
22:57 1 21.9 67 56,216 0 0 0 8.48 16.76 0 1.43 3.71 5.59
22:56 1 21.9 66 56,276 0 0 0 8.6 16.1 0 1.43 3.22 4.94
22:55 1 21.9 66 56,334 0 0 0 8.81 15.63 0 1.43 4.7 7.53
22:52 1 22 66 56,455 0 0 0 7.8 14.24 0 2.14 3.72 5.58
22:47 1 22.1 66 56,582 0 0 0 8.11 13.69 0 2.14 3.25 4.92
22:45 1 22.2 66 56,672 0 0 0 10.11 15.47 0 1.43 4.73 6.88
22:43 1 22.3 66 56,767 0 0 0 9.5 14.29 0 2.14 3.27 4.92
22:38 1 22.4 65 56,940 0 0 0 7.92 12.97 0 2.14 4.27 6.87
22:34 1 22.5 65 57,024 0 0 0 8.43 14.19 0 2.14 3.79 5.56
22:33 1 22.6 65 57,054 0 0 0 7.61 16.37 0 1.43 3.8 5.55
22:32 1 22.6 65 57,075 0 0 0 7.92 12.24 0 2.14 3.8 5.55
22:31 1 22.6 64 57,102 0 0 0 8.13 14.77 0 1.43 2.82 5.55